sensor_id;sensor_type;location;lat;lon;timestamp;pressure;altitude;pressure_sealevel;temperature;humidity
30636;BME280;17400;52.392;9.750;2023-02-23T00:01:39;100507.50;;;9.89;100.00
30636;BME280;17400;52.392;9.750;2023-02-23T00:04:07;100507.72;;;9.87;100.00
30636;BME280;17400;52.392;9.750;2023-02-23T00:06:36;100505.84;;;9.88;100.00
30636;BME280;17400;52.392;9.750;2023-02-23T00:09:04;100502.50;;;9.86;100.00
30636;BME280;17400;52.392;9.750;2023-02-23T00:11:37;100506.88;;;9.87;100.00
30636;BME280;17400;52.392;9.750;2023-02-23T00:14:06;100508.09;;;9.84;100.00
30636;BME280;17400;52.392;9.750;2023-02-23T00:16:34;100508.28;;;9.82;100.00
30636;BME280;17400;52.392;9.750;2023-02-23T00:19:03;100510.38;;;9.80;100.00
30636;BME280;17400;52.392;9.750;2023-02-23T00:21:33;100501.63;;;9.78;100.00
30636;BME280;17400;52.392;9.750;2023-02-23T00:24:02;100503.66;;;9.76;100.00
30636;BME280;17400;52.392;9.750;2023-02-23T00:26:32;100505.53;;;9.76;100.00
30636;BME280;17400;52.392;9.750;2023-02-23T00:29:01;100504.06;;;9.73;100.00
30636;BME280;17400;52.392;9.750;2023-02-23T00:31:31;100496.97;;;9.72;100.00
30636;BME280;17400;52.392;9.750;2023-02-23T00:34:02;100502.00;;;9.75;100.00
30636;BME280;17400;52.392;9.750;2023-02-23T00:36:32;100496.59;;;9.75;100.00
30636;BME280;17400;52.392;9.750;2023-02-23T00:39:02;100504.53;;;9.77;100.00
30636;BME280;17400;52.392;9.750;2023-02-23T00:41:37;100499.72;;;9.79;100.00
30636;BME280;17400;52.392;9.750;2023-02-23T00:44:06;100502.25;;;9.80;100.00
30636;BME280;17400;52.392;9.750;2023-02-23T00:46:35;100508.69;;;9.79;100.00
30636;BME280;17400;52.392;9.750;2023-02-23T00:49:03;100506.63;;;9.81;100.00
30636;BME280;17400;52.392;9.750;2023-02-23T00:51:31;100506.00;;;9.79;100.00
30636;BME280;17400;52.392;9.750;2023-02-23T00:53:59;100511.78;;;9.76;100.00
30636;BME280;17400;52.392;9.750;2023-02-23T00:56:27;100508.03;;;9.77;100.00
30636;BME280;17400;52.392;9.750;2023-02-23T00:58:54;100512.63;;;9.77;100.00
30636;BME280;17400;52.392;9.750;2023-02-23T01:01:23;100516.34;;;9.76;100.00
30636;BME280;17400;52.392;9.750;2023-02-23T01:03:52;100518.44;;;9.74;100.00
30636;BME280;17400;52.392;9.750;2023-02-23T01:06:20;100513.84;;;9.74;100.00
30636;BME280;17400;52.392;9.750;2023-02-23T01:08:49;100511.78;;;9.76;100.00
30636;BME280;17400;52.392;9.750;2023-02-23T01:11:19;100518.25;;;9.75;100.00
30636;BME280;17400;52.392;9.750;2023-02-23T01:13:48;100519.06;;;9.76;100.00
30636;BME280;17400;52.392;9.750;2023-02-23T01:16:19;100519.50;;;9.79;100.00
30636;BME280;17400;52.392;9.750;2023-02-23T01:18:48;100511.59;;;9.78;100.00
30636;BME280;17400;52.392;9.750;2023-02-23T01:21:19;100516.41;;;9.82;100.00
30636;BME280;17400;52.392;9.750;2023-02-23T01:23:48;100517.88;;;9.85;100.00
30636;BME280;17400;52.392;9.750;2023-02-23T01:26:16;100524.13;;;9.86;100.00
30636;BME280;17400;52.392;9.750;2023-02-23T01:28:48;100518.72;;;9.86;100.00
30636;BME280;17400;52.392;9.750;2023-02-23T01:31:15;100517.63;;;9.80;100.00
30636;BME280;17400;52.392;9.750;2023-02-23T01:33:44;100518.47;;;9.80;100.00
30636;BME280;17400;52.392;9.750;2023-02-23T01:36:12;100521.19;;;9.80;100.00
30636;BME280;17400;52.392;9.750;2023-02-23T01:38:42;100523.69;;;9.82;100.00
30636;BME280;17400;52.392;9.750;2023-02-23T01:41:09;100529.06;;;9.75;100.00
30636;BME280;17400;52.392;9.750;2023-02-23T01:43:53;100529.41;;;9.72;100.00
30636;BME280;17400;52.392;9.750;2023-02-23T01:46:21;100528.00;;;9.76;100.00
30636;BME280;17400;52.392;9.750;2023-02-23T01:48:50;100530.91;;;9.75;100.00
30636;BME280;17400;52.392;9.750;2023-02-23T01:51:22;100532.38;;;9.77;100.00
30636;BME280;17400;52.392;9.750;2023-02-23T01:53:56;100534.50;;;9.82;100.00
30636;BME280;17400;52.392;9.750;2023-02-23T01:56:26;100534.97;;;9.86;100.00
30636;BME280;17400;52.392;9.750;2023-02-23T01:58:58;100538.69;;;9.84;100.00
30636;BME280;17400;52.392;9.750;2023-02-23T02:01:29;100532.41;;;9.84;100.00
30636;BME280;17400;52.392;9.750;2023-02-23T02:03:59;100537.41;;;9.80;100.00
30636;BME280;17400;52.392;9.750;2023-02-23T02:06:28;100530.31;;;9.79;100.00
30636;BME280;17400;52.392;9.750;2023-02-23T02:08:59;100537.97;;;9.76;100.00
30636;BME280;17400;52.392;9.750;2023-02-23T02:11:32;100532.13;;;9.72;100.00
30636;BME280;17400;52.392;9.750;2023-02-23T02:14:06;100528.16;;;9.68;100.00
30636;BME280;17400;52.392;9.750;2023-02-23T02:16:51;100533.34;;;9.70;100.00
30636;BME280;17400;52.392;9.750;2023-02-23T02:19:52;100542.94;;;9.72;100.00
30636;BME280;17400;52.392;9.750;2023-02-23T02:22:40;100550.22;;;9.72;100.00
30636;BME280;17400;52.392;9.750;2023-02-23T02:25:25;100546.69;;;9.71;100.00
30636;BME280;17400;52.392;9.750;2023-02-23T02:28:18;100540.97;;;9.59;100.00
30636;BME280;17400;52.392;9.750;2023-02-23T02:31:12;100545.72;;;9.57;100.00
30636;BME280;17400;52.392;9.750;2023-02-23T02:37:27;100545.94;;;9.56;100.00
30636;BME280;17400;52.392;9.750;2023-02-23T02:40:04;100546.81;;;9.63;100.00
30636;BME280;17400;52.392;9.750;2023-02-23T02:42:49;100547.88;;;9.62;100.00
30636;BME280;17400;52.392;9.750;2023-02-23T02:45:25;100540.97;;;9.59;100.00
30636;BME280;17400;52.392;9.750;2023-02-23T02:47:58;100539.75;;;9.62;100.00
30636;BME280;17400;52.392;9.750;2023-02-23T02:50:35;100546.81;;;9.63;100.00
30636;BME280;17400;52.392;9.750;2023-02-23T02:53:10;100540.78;;;9.61;100.00
30636;BME280;17400;52.392;9.750;2023-02-23T02:55:40;100542.47;;;9.62;100.00
30636;BME280;17400;52.392;9.750;2023-02-23T02:58:11;100543.94;;;9.64;100.00
30636;BME280;17400;52.392;9.750;2023-02-23T03:00:40;100541.25;;;9.64;100.00
30636;BME280;17400;52.392;9.750;2023-02-23T03:03:31;100539.75;;;9.62;100.00
30636;BME280;17400;52.392;9.750;2023-02-23T03:06:18;100538.34;;;9.44;100.00
30636;BME280;17400;52.392;9.750;2023-02-23T03:09:10;100543.69;;;9.38;100.00
30636;BME280;17400;52.392;9.750;2023-02-23T03:12:07;100543.13;;;9.42;100.00
30636;BME280;17400;52.392;9.750;2023-02-23T03:15:03;100535.38;;;9.39;100.00
30636;BME280;17400;52.392;9.750;2023-02-23T03:17:56;100537.97;;;9.47;100.00
30636;BME280;17400;52.392;9.750;2023-02-23T03:20:46;100530.53;;;9.56;100.00
30636;BME280;17400;52.392;9.750;2023-02-23T03:23:40;100529.31;;;9.59;100.00
30636;BME280;17400;52.392;9.750;2023-02-23T03:26:36;100531.81;;;9.60;100.00
30636;BME280;17400;52.392;9.750;2023-02-23T03:29:30;100524.50;;;9.54;100.00
30636;BME280;17400;52.392;9.750;2023-02-23T03:32:23;100532.41;;;9.56;100.00
30636;BME280;17400;52.392;9.750;2023-02-23T03:35:16;100528.03;;;9.55;100.00
30636;BME280;17400;52.392;9.750;2023-02-23T03:38:08;100534.09;;;9.57;100.00
30636;BME280;17400;52.392;9.750;2023-02-23T03:40:56;100524.81;;;9.44;100.00
30636;BME280;17400;52.392;9.750;2023-02-23T03:43:48;100527.03;;;9.34;100.00
30636;BME280;17400;52.392;9.750;2023-02-23T03:46:37;100532.44;;;9.34;100.00
30636;BME280;17400;52.392;9.750;2023-02-23T03:49:26;100534.09;;;9.35;100.00
30636;BME280;17400;52.392;9.750;2023-02-23T03:52:17;100538.53;;;9.43;100.00
30636;BME280;17400;52.392;9.750;2023-02-23T03:55:07;100547.03;;;9.40;100.00
30636;BME280;17400;52.392;9.750;2023-02-23T03:57:57;100547.09;;;9.46;100.00
30636;BME280;17400;52.392;9.750;2023-02-23T04:00:48;100536.28;;;9.46;100.00
30636;BME280;17400;52.392;9.750;2023-02-23T04:03:38;100536.53;;;9.52;100.00
30636;BME280;17400;52.392;9.750;2023-02-23T04:06:27;100535.00;;;9.42;100.00
30636;BME280;17400;52.392;9.750;2023-02-23T04:09:15;100540.78;;;9.39;100.00
30636;BME280;17400;52.392;9.750;2023-02-23T04:12:04;100533.59;;;9.46;100.00
30636;BME280;17400;52.392;9.750;2023-02-23T04:14:55;100531.41;;;9.57;100.00
30636;BME280;17400;52.392;9.750;2023-02-23T04:17:26;100536.84;;;9.63;100.00
30636;BME280;17400;52.392;9.750;2023-02-23T04:19:55;100537.44;;;9.59;100.00
30636;BME280;17400;52.392;9.750;2023-02-23T04:22:23;100538.66;;;9.56;100.00
30636;BME280;17400;52.392;9.750;2023-02-23T04:24:51;100534.09;;;9.57;100.00
30636;BME280;17400;52.392;9.750;2023-02-23T04:27:19;100539.75;;;9.62;100.00
30636;BME280;17400;52.392;9.750;2023-02-23T04:29:46;100538.53;;;9.64;100.00
30636;BME280;17400;52.392;9.750;2023-02-23T04:32:16;100544.97;;;9.63;100.00
30636;BME280;17400;52.392;9.750;2023-02-23T04:34:46;100547.25;;;9.66;100.00
30636;BME280;17400;52.392;9.750;2023-02-23T04:37:14;100546.34;;;9.53;100.00
30636;BME280;17400;52.392;9.750;2023-02-23T04:39:42;100547.41;;;9.58;100.00
30636;BME280;17400;52.392;9.750;2023-02-23T04:42:13;100542.06;;;9.65;100.00
30636;BME280;17400;52.392;9.750;2023-02-23T04:44:42;100542.50;;;9.69;100.00
30636;BME280;17400;52.392;9.750;2023-02-23T04:47:10;100541.50;;;9.76;100.00
30636;BME280;17400;52.392;9.750;2023-02-23T04:49:37;100543.63;;;9.81;100.00
30636;BME280;17400;52.392;9.750;2023-02-23T04:52:06;100545.13;;;9.83;100.00
30636;BME280;17400;52.392;9.750;2023-02-23T04:54:36;100543.06;;;9.86;100.00
30636;BME280;17400;52.392;9.750;2023-02-23T04:57:04;100548.91;;;9.89;100.00
30636;BME280;17400;52.392;9.750;2023-02-23T04:59:32;100545.38;;;9.89;100.00
30636;BME280;17400;52.392;9.750;2023-02-23T05:02:00;100554.06;;;9.84;100.00
30636;BME280;17400;52.392;9.750;2023-02-23T05:04:28;100553.81;;;9.79;100.00
30636;BME280;17400;52.392;9.750;2023-02-23T05:06:55;100556.50;;;9.79;100.00
30636;BME280;17400;52.392;9.750;2023-02-23T05:09:24;100550.28;;;9.78;100.00
30636;BME280;17400;52.392;9.750;2023-02-23T05:11:52;100551.03;;;9.72;100.00
30636;BME280;17400;52.392;9.750;2023-02-23T05:14:20;100559.31;;;9.64;100.00
30636;BME280;17400;52.392;9.750;2023-02-23T05:16:48;100555.56;;;9.65;100.00
30636;BME280;17400;52.392;9.750;2023-02-23T05:19:15;100556.41;;;9.65;100.00
30636;BME280;17400;52.392;9.750;2023-02-23T05:21:43;100559.34;;;9.71;100.00
30636;BME280;17400;52.392;9.750;2023-02-23T05:24:11;100560.84;;;9.73;100.00
30636;BME280;17400;52.392;9.750;2023-02-23T05:26:40;100553.38;;;9.75;100.00
30636;BME280;17400;52.392;9.750;2023-02-23T05:29:08;100556.44;;;9.72;100.00
30636;BME280;17400;52.392;9.750;2023-02-23T05:31:35;100561.84;;;9.72;100.00
30636;BME280;17400;52.392;9.750;2023-02-23T05:34:03;100561.09;;;9.78;100.00
30636;BME280;17400;52.392;9.750;2023-02-23T05:36:32;100559.16;;;9.72;100.00
30636;BME280;17400;52.392;9.750;2023-02-23T05:38:59;100560.78;;;9.66;100.00
30636;BME280;17400;52.392;9.750;2023-02-23T05:41:27;100551.84;;;9.66;100.00
30636;BME280;17400;52.392;9.750;2023-02-23T05:43:57;100557.38;;;9.58;100.00
30636;BME280;17400;52.392;9.750;2023-02-23T05:46:26;100559.19;;;9.50;100.00
30636;BME280;17400;52.392;9.750;2023-02-23T05:48:56;100557.38;;;9.58;100.00
30636;BME280;17400;52.392;9.750;2023-02-23T05:51:26;100557.81;;;9.61;100.00
30636;BME280;17400;52.392;9.750;2023-02-23T05:53:54;100559.31;;;9.64;100.00
30636;BME280;17400;52.392;9.750;2023-02-23T05:56:22;100553.91;;;9.64;100.00
30636;BME280;17400;52.392;9.750;2023-02-23T05:58:51;100556.41;;;9.65;100.00
30636;BME280;17400;52.392;9.750;2023-02-23T06:01:23;100560.88;;;9.52;100.00
30636;BME280;17400;52.392;9.750;2023-02-23T06:03:51;100560.47;;;9.55;100.00
30636;BME280;17400;52.392;9.750;2023-02-23T06:06:19;100560.06;;;9.58;100.00
30636;BME280;17400;52.392;9.750;2023-02-23T06:08:47;100560.72;;;9.60;100.00
30636;BME280;17400;52.392;9.750;2023-02-23T06:11:15;100556.88;;;9.47;100.00
30636;BME280;17400;52.392;9.750;2023-02-23T06:13:43;100561.19;;;9.42;100.00
30636;BME280;17400;52.392;9.750;2023-02-23T06:16:11;100559.53;;;9.41;100.00
30636;BME280;17400;52.392;9.750;2023-02-23T06:18:40;100563.50;;;9.45;100.00
30636;BME280;17400;52.392;9.750;2023-02-23T06:21:08;100578.75;;;9.53;100.00
30636;BME280;17400;52.392;9.750;2023-02-23T06:23:36;100564.59;;;9.50;100.00
30636;BME280;17400;52.392;9.750;2023-02-23T06:26:04;100567.94;;;9.53;100.00
30636;BME280;17400;52.392;9.750;2023-02-23T06:28:32;100569.16;;;9.50;100.00
30636;BME280;17400;52.392;9.750;2023-02-23T06:30:59;100565.88;;;9.55;100.00
30636;BME280;17400;52.392;9.750;2023-02-23T06:33:27;100570.25;;;9.56;100.00
30636;BME280;17400;52.392;9.750;2023-02-23T06:35:56;100575.19;;;9.52;100.00
30636;BME280;17400;52.392;9.750;2023-02-23T06:38:24;100578.31;;;9.49;100.00
30636;BME280;17400;52.392;9.750;2023-02-23T06:40:53;100579.13;;;9.49;100.00
30636;BME280;17400;52.392;9.750;2023-02-23T06:43:21;100580.03;;;9.57;100.00
30636;BME280;17400;52.392;9.750;2023-02-23T06:45:50;100576.38;;;9.64;100.00
30636;BME280;17400;52.392;9.750;2023-02-23T06:48:18;100582.00;;;9.70;100.00
30636;BME280;17400;52.392;9.750;2023-02-23T06:50:46;100580.78;;;9.72;100.00
30636;BME280;17400;52.392;9.750;2023-02-23T06:53:15;100592.25;;;9.74;100.00
30636;BME280;17400;52.392;9.750;2023-02-23T06:55:43;100590.56;;;9.73;100.00
30636;BME280;17400;52.392;9.750;2023-02-23T06:58:11;100582.66;;;9.72;100.00
30636;BME280;17400;52.392;9.750;2023-02-23T07:00:41;100588.06;;;9.72;100.00
30636;BME280;17400;52.392;9.750;2023-02-23T07:03:09;100591.22;;;9.75;100.00
30636;BME280;17400;52.392;9.750;2023-02-23T07:05:37;100592.88;;;9.76;100.00
30636;BME280;17400;52.392;9.750;2023-02-23T07:08:04;100596.88;;;9.80;100.00
30636;BME280;17400;52.392;9.750;2023-02-23T07:10:34;100593.31;;;9.80;100.00
30636;BME280;17400;52.392;9.750;2023-02-23T07:13:02;100600.22;;;9.82;100.00
30636;BME280;17400;52.392;9.750;2023-02-23T07:15:30;100600.22;;;9.82;100.00
30636;BME280;17400;52.392;9.750;2023-02-23T07:17:58;100607.09;;;9.85;100.00
30636;BME280;17400;52.392;9.750;2023-02-23T07:20:25;100604.75;;;9.75;100.00
30636;BME280;17400;52.392;9.750;2023-02-23T07:22:53;100609.34;;;9.81;100.00
30636;BME280;17400;52.392;9.750;2023-02-23T07:25:21;100604.75;;;9.75;100.00
30636;BME280;17400;52.392;9.750;2023-02-23T07:27:50;100609.94;;;9.77;100.00
30636;BME280;17400;52.392;9.750;2023-02-23T07:30:20;100618.25;;;9.75;100.00
30636;BME280;17400;52.392;9.750;2023-02-23T07:32:50;100614.69;;;9.75;100.00
30636;BME280;17400;52.392;9.750;2023-02-23T07:35:18;100626.72;;;9.72;100.00
30636;BME280;17400;52.392;9.750;2023-02-23T07:37:45;100624.56;;;9.61;100.00
30636;BME280;17400;52.392;9.750;2023-02-23T07:40:13;100625.72;;;9.52;100.00
30636;BME280;17400;52.392;9.750;2023-02-23T07:42:41;100628.56;;;9.43;100.00
30636;BME280;17400;52.392;9.750;2023-02-23T07:45:12;100632.22;;;9.36;100.00
30636;BME280;17400;52.392;9.750;2023-02-23T07:47:39;100623.06;;;9.37;100.00
30636;BME280;17400;52.392;9.750;2023-02-23T07:50:08;100633.56;;;9.46;100.00
30636;BME280;17400;52.392;9.750;2023-02-23T07:52:40;100632.59;;;9.54;100.00
30636;BME280;17400;52.392;9.750;2023-02-23T07:55:09;100634.34;;;9.62;100.00
30636;BME280;17400;52.392;9.750;2023-02-23T07:57:39;100635.13;;;9.56;100.00
30636;BME280;17400;52.392;9.750;2023-02-23T08:00:11;100638.44;;;9.36;100.00
30636;BME280;17400;52.392;9.750;2023-02-23T08:02:40;100639.59;;;9.48;100.00
30636;BME280;17400;52.392;9.750;2023-02-23T08:05:08;100630.53;;;9.34;100.00
30636;BME280;17400;52.392;9.750;2023-02-23T08:07:35;100627.28;;;9.24;100.00
30636;BME280;17400;52.392;9.750;2023-02-23T08:10:03;100636.31;;;9.31;100.00
30636;BME280;17400;52.392;9.750;2023-02-23T08:12:31;100632.28;;;9.42;100.00
30636;BME280;17400;52.392;9.750;2023-02-23T08:14:59;100636.59;;;9.58;100.00
30636;BME280;17400;52.392;9.750;2023-02-23T08:17:29;100630.78;;;9.61;100.00
30636;BME280;17400;52.392;9.750;2023-02-23T08:19:57;100625.84;;;9.65;100.00
30636;BME280;17400;52.392;9.750;2023-02-23T08:22:24;100630.03;;;9.67;100.00
30636;BME280;17400;52.392;9.750;2023-02-23T08:24:52;100633.19;;;9.71;100.00
30636;BME280;17400;52.392;9.750;2023-02-23T08:27:19;100640.66;;;9.69;100.00
30636;BME280;17400;52.392;9.750;2023-02-23T08:29:47;100642.31;;;9.70;100.00
30636;BME280;17400;52.392;9.750;2023-02-23T08:32:17;100642.47;;;9.62;100.00
30636;BME280;17400;52.392;9.750;2023-02-23T08:34:47;100653.06;;;9.63;100.00
30636;BME280;17400;52.392;9.750;2023-02-23T08:37:14;100655.19;;;9.68;100.00
30636;BME280;17400;52.392;9.750;2023-02-23T08:39:42;100657.06;;;9.67;100.00
30636;BME280;17400;52.392;9.750;2023-02-23T08:42:10;100655.66;;;9.72;100.00
30636;BME280;17400;52.392;9.750;2023-02-23T08:44:38;100653.69;;;9.65;100.00
30636;BME280;17400;52.392;9.750;2023-02-23T08:47:06;100658.41;;;9.57;100.00
30636;BME280;17400;52.392;9.750;2023-02-23T08:49:33;100662.06;;;9.49;100.00
30636;BME280;17400;52.392;9.750;2023-02-23T08:52:02;100665.66;;;9.56;100.00
30636;BME280;17400;52.392;9.750;2023-02-23T08:54:30;100671.94;;;9.57;100.00
30636;BME280;17400;52.392;9.750;2023-02-23T08:56:58;100675.72;;;9.62;100.00
30636;BME280;17400;52.392;9.750;2023-02-23T08:59:26;100671.06;;;9.56;100.00
30636;BME280;17400;52.392;9.750;2023-02-23T09:01:54;100676.28;;;9.58;100.00
30636;BME280;17400;52.392;9.750;2023-02-23T09:04:22;100676.38;;;9.64;100.00
30636;BME280;17400;52.392;9.750;2023-02-23T09:06:49;100680.66;;;9.59;100.00
30636;BME280;17400;52.392;9.750;2023-02-23T09:09:18;100684.50;;;9.49;100.00
30636;BME280;17400;52.392;9.750;2023-02-23T09:11:46;100692.06;;;9.54;100.00
30636;BME280;17400;52.392;9.750;2023-02-23T09:14:14;100689.22;;;9.62;100.00
30636;BME280;17400;52.392;9.750;2023-02-23T09:16:41;100688.34;;;9.55;100.00
30636;BME280;17400;52.392;9.750;2023-02-23T09:19:10;100695.72;;;9.46;100.00
30636;BME280;17400;52.392;9.750;2023-02-23T09:21:38;100694.63;;;9.41;100.00
30636;BME280;17400;52.392;9.750;2023-02-23T09:24:06;100691.78;;;9.49;100.00
30636;BME280;17400;52.392;9.750;2023-02-23T09:26:35;100700.28;;;9.46;100.00
30636;BME280;17400;52.392;9.750;2023-02-23T09:29:06;100703.81;;;9.46;100.00
30636;BME280;17400;52.392;9.750;2023-02-23T09:31:34;100691.88;;;9.56;100.00
30636;BME280;17400;52.392;9.750;2023-02-23T09:34:01;100694.44;;;9.64;100.00
30636;BME280;17400;52.392;9.750;2023-02-23T09:36:29;100696.06;;;9.58;100.00
30636;BME280;17400;52.392;9.750;2023-02-23T09:38:57;100695.41;;;9.56;100.00
30636;BME280;17400;52.392;9.750;2023-02-23T09:47:29;100703.97;;;9.60;100.00
30636;BME280;17400;52.392;9.750;2023-02-23T09:50:02;100704.78;;;9.60;100.00
30636;BME280;17400;52.392;9.750;2023-02-23T09:52:35;100701.25;;;9.60;100.00
30636;BME280;17400;52.392;9.750;2023-02-23T09:55:07;100706.00;;;9.58;100.00
30636;BME280;17400;52.392;9.750;2023-02-23T09:57:38;100701.66;;;9.57;100.00
30636;BME280;17400;52.392;9.750;2023-02-23T10:00:15;100708.69;;;9.73;100.00
30636;BME280;17400;52.392;9.750;2023-02-23T10:02:55;100709.09;;;9.91;100.00
30636;BME280;17400;52.392;9.750;2023-02-23T10:05:29;100706.69;;;10.03;100.00
30636;BME280;17400;52.392;9.750;2023-02-23T10:08:02;100710.44;;;10.02;100.00
30636;BME280;17400;52.392;9.750;2023-02-23T10:10:38;100714.34;;;9.99;100.00
30636;BME280;17400;52.392;9.750;2023-02-23T10:13:14;100712.69;;;9.98;100.00
30636;BME280;17400;52.392;9.750;2023-02-23T10:15:50;100717.47;;;9.96;100.00
30636;BME280;17400;52.392;9.750;2023-02-23T10:18:24;100720.41;;;9.80;100.00
30636;BME280;17400;52.392;9.750;2023-02-23T10:21:15;100723.41;;;9.70;100.00
30636;BME280;17400;52.392;9.750;2023-02-23T10:23:51;100725.84;;;9.65;100.00
30636;BME280;17400;52.392;9.750;2023-02-23T10:26:22;100721.34;;;9.72;100.00
30636;BME280;17400;52.392;9.750;2023-02-23T10:28:51;100717.88;;;9.78;100.00
30636;BME280;17400;52.392;9.750;2023-02-23T10:31:29;100725.88;;;9.87;100.00
30636;BME280;17400;52.392;9.750;2023-02-23T10:34:03;100723.38;;;9.85;100.00
30636;BME280;17400;52.392;9.750;2023-02-23T10:36:35;100721.63;;;9.77;100.00
30636;BME280;17400;52.392;9.750;2023-02-23T10:39:05;100722.56;;;9.70;100.00
30636;BME280;17400;52.392;9.750;2023-02-23T10:41:34;100721.34;;;9.72;100.00
30636;BME280;17400;52.392;9.750;2023-02-23T10:44:04;100729.84;;;9.69;100.00
30636;BME280;17400;52.392;9.750;2023-02-23T10:46:45;100720.06;;;9.68;100.00
30636;BME280;17400;52.392;9.750;2023-02-23T10:49:18;100727.22;;;9.76;100.00
30636;BME280;17400;52.392;9.750;2023-02-23T10:51:48;100730.25;;;9.66;100.00
30636;BME280;17400;52.392;9.750;2023-02-23T10:54:37;100733.97;;;9.65;100.00
30636;BME280;17400;52.392;9.750;2023-02-23T10:57:11;100725.53;;;9.75;100.00
30636;BME280;17400;52.392;9.750;2023-02-23T10:59:59;100723.69;;;9.75;100.00
30636;BME280;17400;52.392;9.750;2023-02-23T11:02:29;100721.06;;;9.82;100.00
30636;BME280;17400;52.392;9.750;2023-02-23T11:04:58;100720.19;;;9.81;100.00
30636;BME280;17400;52.392;9.750;2023-02-23T11:07:29;100709.66;;;9.87;100.00
30636;BME280;17400;52.392;9.750;2023-02-23T11:10:22;100716.19;;;9.92;100.00
30636;BME280;17400;52.392;9.750;2023-02-23T11:12:51;100710.44;;;9.80;100.00
30636;BME280;17400;52.392;9.750;2023-02-23T11:15:25;100714.03;;;9.88;100.00
30636;BME280;17400;52.392;9.750;2023-02-23T11:18:20;100704.25;;;9.87;100.00
30636;BME280;17400;52.392;9.750;2023-02-23T11:20:50;100709.50;;;9.73;100.00
30636;BME280;17400;52.392;9.750;2023-02-23T11:23:22;100704.69;;;9.69;100.00
30636;BME280;17400;52.392;9.750;2023-02-23T11:25:56;100707.19;;;9.70;100.00
30636;BME280;17400;52.392;9.750;2023-02-23T11:28:29;100704.88;;;9.67;100.00
30636;BME280;17400;52.392;9.750;2023-02-23T11:31:00;100702.75;;;9.62;100.00
30636;BME280;17400;52.392;9.750;2023-02-23T11:33:32;100699.72;;;9.72;100.00
30636;BME280;17400;52.392;9.750;2023-02-23T11:36:15;100702.81;;;9.69;100.00
30636;BME280;17400;52.392;9.750;2023-02-23T11:38:44;100699.16;;;9.77;100.00
30636;BME280;17400;52.392;9.750;2023-02-23T11:41:21;100696.13;;;9.87;100.00
30636;BME280;17400;52.392;9.750;2023-02-23T11:43:51;100699.69;;;9.87;100.00
30636;BME280;17400;52.392;9.750;2023-02-23T11:46:20;100692.19;;;9.89;100.00
30636;BME280;17400;52.392;9.750;2023-02-23T11:48:52;100693.53;;;10.00;100.00
30636;BME280;17400;52.392;9.750;2023-02-23T11:51:26;100698.06;;;10.14;100.00
30636;BME280;17400;52.392;9.750;2023-02-23T11:53:56;100690.13;;;10.13;100.00
30636;BME280;17400;52.392;9.750;2023-02-23T11:56:25;100686.59;;;10.12;100.00
30636;BME280;17400;52.392;9.750;2023-02-23T11:58:56;100680.66;;;10.24;100.00
30636;BME280;17400;52.392;9.750;2023-02-23T12:01:36;100686.59;;;10.12;100.00
30636;BME280;17400;52.392;9.750;2023-02-23T12:04:09;100682.28;;;10.18;100.00
30636;BME280;17400;52.392;9.750;2023-02-23T12:06:39;100676.41;;;10.14;100.00
30636;BME280;17400;52.392;9.750;2023-02-23T12:09:15;100684.41;;;10.01;100.00
30636;BME280;17400;52.392;9.750;2023-02-23T12:11:48;100682.63;;;10.08;100.00
30636;BME280;17400;52.392;9.750;2023-02-23T12:14:25;100685.56;;;9.92;100.00
30636;BME280;17400;52.392;9.750;2023-02-23T12:16:57;100669.28;;;9.85;100.00
30636;BME280;17400;52.392;9.750;2023-02-23T12:19:30;100673.34;;;9.96;100.00
30636;BME280;17400;52.392;9.750;2023-02-23T12:22:05;100665.47;;;10.01;100.00
30636;BME280;17400;52.392;9.750;2023-02-23T12:24:40;100675.94;;;10.04;100.00
30636;BME280;17400;52.392;9.750;2023-02-23T12:27:13;100667.41;;;10.07;100.00
30636;BME280;17400;52.392;9.750;2023-02-23T12:29:57;100669.09;;;10.08;100.00
30636;BME280;17400;52.392;9.750;2023-02-23T12:32:36;100665.34;;;10.09;100.00
30636;BME280;17400;52.392;9.750;2023-02-23T12:35:11;100667.56;;;9.99;100.00
30636;BME280;17400;52.392;9.750;2023-02-23T12:37:46;100660.31;;;10.06;100.00
30636;BME280;17400;52.392;9.750;2023-02-23T12:40:15;100660.78;;;10.10;100.00
30636;BME280;17400;52.392;9.750;2023-02-23T12:42:51;100668.09;;;10.16;100.00
30636;BME280;17400;52.392;9.750;2023-02-23T12:45:25;100665.22;;;10.17;100.00
30636;BME280;17400;52.392;9.750;2023-02-23T12:48:02;100670.22;;;10.21;100.00
30636;BME280;17400;52.392;9.750;2023-02-23T12:50:37;100662.88;;;10.14;100.00
30636;BME280;17400;52.392;9.750;2023-02-23T12:53:17;100670.25;;;9.99;100.00
30636;BME280;17400;52.392;9.750;2023-02-23T12:56:00;100667.03;;;9.89;100.00
30636;BME280;17400;52.392;9.750;2023-02-23T12:58:39;100667.03;;;9.89;100.00
30636;BME280;17400;52.392;9.750;2023-02-23T13:01:15;100669.81;;;9.95;100.00
30636;BME280;17400;52.392;9.750;2023-02-23T13:04:06;100668.59;;;9.98;100.00
30636;BME280;17400;52.392;9.750;2023-02-23T13:06:46;100668.47;;;9.84;100.00
30636;BME280;17400;52.392;9.750;2023-02-23T13:09:29;100671.03;;;9.93;100.00
30636;BME280;17400;52.392;9.750;2023-02-23T13:12:11;100669.81;;;9.95;100.00
30636;BME280;17400;52.392;9.750;2023-02-23T13:14:45;100671.41;;;9.68;100.00
30636;BME280;17400;52.392;9.750;2023-02-23T13:17:27;100675.78;;;9.69;100.00
30636;BME280;17400;52.392;9.750;2023-02-23T13:20:01;100669.72;;;9.67;100.00
30636;BME280;17400;52.392;9.750;2023-02-23T13:22:36;100666.94;;;9.60;100.00
30636;BME280;17400;52.392;9.750;2023-02-23T13:25:19;100677.47;;;9.70;100.00
30636;BME280;17400;52.392;9.750;2023-02-23T13:27:54;100663.41;;;9.81;100.00
30636;BME280;17400;52.392;9.750;2023-02-23T13:30:25;100668.72;;;9.90;100.00